sensor_id;sensor_type;location;lat;lon;timestamp;P1;durP1;ratioP1;P2;durP2;ratioP2
5225;SDS011;2632;51.666;7.146;2023-04-01T00:01:05;3.27;;;1.33;;
5225;SDS011;2632;51.666;7.146;2023-04-01T00:03:33;3.07;;;1.50;;
5225;SDS011;2632;51.666;7.146;2023-04-01T00:06:01;2.70;;;1.40;;
5225;SDS011;2632;51.666;7.146;2023-04-01T00:08:28;3.43;;;1.57;;
5225;SDS011;2632;51.666;7.146;2023-04-01T00:10:55;2.70;;;1.20;;
5225;SDS011;2632;51.666;7.146;2023-04-01T00:13:24;3.03;;;1.70;;
5225;SDS011;2632;51.666;7.146;2023-04-01T00:15:52;2.93;;;0.90;;
5225;SDS011;2632;51.666;7.146;2023-04-01T00:18:21;2.03;;;0.80;;
5225;SDS011;2632;51.666;7.146;2023-04-01T00:20:49;2.37;;;1.17;;
5225;SDS011;2632;51.666;7.146;2023-04-01T00:23:17;2.23;;;1.50;;
5225;SDS011;2632;51.666;7.146;2023-04-01T00:25:45;4.40;;;1.40;;
5225;SDS011;2632;51.666;7.146;2023-04-01T00:28:15;2.17;;;1.40;;
5225;SDS011;2632;51.666;7.146;2023-04-01T00:30:42;5.13;;;2.00;;
5225;SDS011;2632;51.666;7.146;2023-04-01T00:33:09;2.57;;;1.60;;
5225;SDS011;2632;51.666;7.146;2023-04-01T00:35:37;3.73;;;1.63;;
5225;SDS011;2632;51.666;7.146;2023-04-01T00:38:04;3.57;;;1.83;;
5225;SDS011;2632;51.666;7.146;2023-04-01T00:40:33;4.70;;;1.80;;
5225;SDS011;2632;51.666;7.146;2023-04-01T00:43:03;5.17;;;2.00;;
5225;SDS011;2632;51.666;7.146;2023-04-01T00:45:36;2.90;;;1.73;;
5225;SDS011;2632;51.666;7.146;2023-04-01T00:48:13;3.70;;;1.77;;
5225;SDS011;2632;51.666;7.146;2023-04-01T00:50:44;4.67;;;2.10;;
5225;SDS011;2632;51.666;7.146;2023-04-01T00:53:17;3.10;;;1.80;;
5225;SDS011;2632;51.666;7.146;2023-04-01T00:55:49;3.87;;;2.10;;
5225;SDS011;2632;51.666;7.146;2023-04-01T00:58:20;7.43;;;1.70;;
5225;SDS011;2632;51.666;7.146;2023-04-01T01:00:49;4.00;;;2.10;;
5225;SDS011;2632;51.666;7.146;2023-04-01T01:03:17;9.23;;;2.17;;
5225;SDS011;2632;51.666;7.146;2023-04-01T01:08:37;4.30;;;1.93;;
5225;SDS011;2632;51.666;7.146;2023-04-01T01:11:05;3.83;;;1.70;;
5225;SDS011;2632;51.666;7.146;2023-04-01T01:13:40;3.00;;;1.67;;
5225;SDS011;2632;51.666;7.146;2023-04-01T01:16:30;2.30;;;1.60;;
5225;SDS011;2632;51.666;7.146;2023-04-01T01:24:51;2.83;;;2.03;;
5225;SDS011;2632;51.666;7.146;2023-04-01T01:27:41;2.90;;;1.50;;
5225;SDS011;2632;51.666;7.146;2023-04-01T01:30:20;1.40;;;1.30;;
5225;SDS011;2632;51.666;7.146;2023-04-01T01:33:12;2.03;;;1.57;;
5225;SDS011;2632;51.666;7.146;2023-04-01T01:35:43;4.90;;;1.73;;
5225;SDS011;2632;51.666;7.146;2023-04-01T01:38:16;3.23;;;1.57;;
5225;SDS011;2632;51.666;7.146;2023-04-01T01:40:48;2.77;;;2.10;;
5225;SDS011;2632;51.666;7.146;2023-04-01T01:43:24;2.07;;;1.87;;
5225;SDS011;2632;51.666;7.146;2023-04-01T01:45:56;4.37;;;1.70;;
5225;SDS011;2632;51.666;7.146;2023-04-01T01:48:26;6.33;;;2.27;;
5225;SDS011;2632;51.666;7.146;2023-04-01T01:50:55;3.97;;;1.77;;
5225;SDS011;2632;51.666;7.146;2023-04-01T01:53:22;1.83;;;1.60;;
5225;SDS011;2632;51.666;7.146;2023-04-01T01:55:49;4.10;;;1.67;;
5225;SDS011;2632;51.666;7.146;2023-04-01T01:58:17;1.87;;;1.20;;
5225;SDS011;2632;51.666;7.146;2023-04-01T02:00:55;2.43;;;1.60;;
5225;SDS011;2632;51.666;7.146;2023-04-01T02:03:26;3.03;;;1.37;;
5225;SDS011;2632;51.666;7.146;2023-04-01T02:05:56;1.67;;;1.30;;
5225;SDS011;2632;51.666;7.146;2023-04-01T02:08:39;1.20;;;1.10;;
5225;SDS011;2632;51.666;7.146;2023-04-01T02:11:10;2.30;;;1.10;;
5225;SDS011;2632;51.666;7.146;2023-04-01T02:16:18;1.50;;;1.10;;
5225;SDS011;2632;51.666;7.146;2023-04-01T02:18:50;1.73;;;1.10;;
5225;SDS011;2632;51.666;7.146;2023-04-01T02:21:20;2.50;;;1.57;;
5225;SDS011;2632;51.666;7.146;2023-04-01T02:23:49;4.10;;;1.30;;
5225;SDS011;2632;51.666;7.146;2023-04-01T02:26:17;3.07;;;1.60;;
5225;SDS011;2632;51.666;7.146;2023-04-01T02:28:45;1.17;;;1.07;;
5225;SDS011;2632;51.666;7.146;2023-04-01T02:31:14;2.03;;;1.43;;
5225;SDS011;2632;51.666;7.146;2023-04-01T02:33:41;1.50;;;1.33;;
5225;SDS011;2632;51.666;7.146;2023-04-01T02:36:15;2.60;;;1.73;;
5225;SDS011;2632;51.666;7.146;2023-04-01T02:38:44;2.83;;;1.87;;
5225;SDS011;2632;51.666;7.146;2023-04-01T02:41:11;1.93;;;1.70;;
5225;SDS011;2632;51.666;7.146;2023-04-01T02:43:38;2.37;;;1.70;;
5225;SDS011;2632;51.666;7.146;2023-04-01T02:46:06;3.40;;;1.90;;
5225;SDS011;2632;51.666;7.146;2023-04-01T02:48:32;3.90;;;2.00;;
5225;SDS011;2632;51.666;7.146;2023-04-01T02:50:59;3.07;;;1.73;;
5225;SDS011;2632;51.666;7.146;2023-04-01T02:53:26;2.80;;;2.00;;
5225;SDS011;2632;51.666;7.146;2023-04-01T02:55:52;2.40;;;1.83;;
5225;SDS011;2632;51.666;7.146;2023-04-01T02:58:19;2.20;;;1.90;;
5225;SDS011;2632;51.666;7.146;2023-04-01T03:00:46;2.50;;;1.97;;
5225;SDS011;2632;51.666;7.146;2023-04-01T03:03:12;5.63;;;2.40;;
5225;SDS011;2632;51.666;7.146;2023-04-01T03:05:39;2.87;;;2.10;;
5225;SDS011;2632;51.666;7.146;2023-04-01T03:08:06;3.53;;;2.23;;
5225;SDS011;2632;51.666;7.146;2023-04-01T03:10:33;4.83;;;2.47;;
5225;SDS011;2632;51.666;7.146;2023-04-01T03:12:59;2.40;;;1.93;;
5225;SDS011;2632;51.666;7.146;2023-04-01T03:15:26;2.13;;;1.83;;
5225;SDS011;2632;51.666;7.146;2023-04-01T03:17:53;3.30;;;2.20;;
5225;SDS011;2632;51.666;7.146;2023-04-01T03:20:20;4.20;;;2.37;;
5225;SDS011;2632;51.666;7.146;2023-04-01T03:22:46;3.23;;;2.43;;
5225;SDS011;2632;51.666;7.146;2023-04-01T03:25:13;4.03;;;2.27;;
5225;SDS011;2632;51.666;7.146;2023-04-01T03:27:40;4.17;;;2.00;;
5225;SDS011;2632;51.666;7.146;2023-04-01T03:30:06;1.60;;;1.50;;
5225;SDS011;2632;51.666;7.146;2023-04-01T03:32:36;4.20;;;1.80;;
5225;SDS011;2632;51.666;7.146;2023-04-01T03:35:03;3.20;;;1.73;;
5225;SDS011;2632;51.666;7.146;2023-04-01T03:37:31;4.13;;;2.23;;
5225;SDS011;2632;51.666;7.146;2023-04-01T03:39:58;3.83;;;1.93;;
5225;SDS011;2632;51.666;7.146;2023-04-01T03:42:24;3.43;;;1.83;;
5225;SDS011;2632;51.666;7.146;2023-04-01T03:44:51;2.93;;;1.80;;
5225;SDS011;2632;51.666;7.146;2023-04-01T03:47:18;4.10;;;2.13;;
5225;SDS011;2632;51.666;7.146;2023-04-01T03:49:48;2.60;;;2.23;;
5225;SDS011;2632;51.666;7.146;2023-04-01T03:52:15;2.20;;;1.90;;
5225;SDS011;2632;51.666;7.146;2023-04-01T03:54:41;3.20;;;2.00;;
5225;SDS011;2632;51.666;7.146;2023-04-01T03:57:08;3.03;;;1.83;;
5225;SDS011;2632;51.666;7.146;2023-04-01T03:59:35;3.67;;;1.50;;
5225;SDS011;2632;51.666;7.146;2023-04-01T04:02:01;2.60;;;1.60;;
5225;SDS011;2632;51.666;7.146;2023-04-01T04:04:28;2.70;;;1.50;;
5225;SDS011;2632;51.666;7.146;2023-04-01T04:06:55;3.50;;;2.30;;
5225;SDS011;2632;51.666;7.146;2023-04-01T04:09:22;2.23;;;1.77;;
5225;SDS011;2632;51.666;7.146;2023-04-01T04:11:49;1.93;;;1.70;;
5225;SDS011;2632;51.666;7.146;2023-04-01T04:14:16;3.77;;;2.20;;
5225;SDS011;2632;51.666;7.146;2023-04-01T04:16:43;3.80;;;1.97;;
5225;SDS011;2632;51.666;7.146;2023-04-01T04:19:10;3.93;;;2.20;;
5225;SDS011;2632;51.666;7.146;2023-04-01T04:21:37;3.53;;;2.10;;
5225;SDS011;2632;51.666;7.146;2023-04-01T04:24:05;3.50;;;2.23;;
5225;SDS011;2632;51.666;7.146;2023-04-01T04:26:31;5.00;;;2.80;;
5225;SDS011;2632;51.666;7.146;2023-04-01T04:28:58;3.47;;;2.40;;
5225;SDS011;2632;51.666;7.146;2023-04-01T04:31:25;5.23;;;3.20;;
5225;SDS011;2632;51.666;7.146;2023-04-01T04:33:52;4.70;;;3.43;;
5225;SDS011;2632;51.666;7.146;2023-04-01T04:36:20;6.13;;;3.87;;
5225;SDS011;2632;51.666;7.146;2023-04-01T04:38:47;8.43;;;3.73;;
5225;SDS011;2632;51.666;7.146;2023-04-01T04:41:15;6.30;;;3.83;;
5225;SDS011;2632;51.666;7.146;2023-04-01T04:43:51;6.57;;;3.77;;
5225;SDS011;2632;51.666;7.146;2023-04-01T04:46:20;5.37;;;3.00;;
5225;SDS011;2632;51.666;7.146;2023-04-01T04:48:48;4.53;;;3.57;;
5225;SDS011;2632;51.666;7.146;2023-04-01T04:51:15;5.80;;;3.43;;
5225;SDS011;2632;51.666;7.146;2023-04-01T04:53:43;5.27;;;2.90;;
5225;SDS011;2632;51.666;7.146;2023-04-01T04:56:10;5.57;;;3.40;;
5225;SDS011;2632;51.666;7.146;2023-04-01T04:58:38;6.10;;;3.00;;
5225;SDS011;2632;51.666;7.146;2023-04-01T05:01:06;5.87;;;3.47;;
5225;SDS011;2632;51.666;7.146;2023-04-01T05:03:37;7.00;;;3.23;;
5225;SDS011;2632;51.666;7.146;2023-04-01T05:06:04;5.57;;;3.50;;
5225;SDS011;2632;51.666;7.146;2023-04-01T05:08:32;10.30;;;3.70;;
5225;SDS011;2632;51.666;7.146;2023-04-01T05:10:59;7.10;;;3.40;;
5225;SDS011;2632;51.666;7.146;2023-04-01T05:13:26;8.57;;;3.93;;
5225;SDS011;2632;51.666;7.146;2023-04-01T05:15:53;6.40;;;4.47;;
5225;SDS011;2632;51.666;7.146;2023-04-01T05:18:20;7.40;;;3.87;;
5225;SDS011;2632;51.666;7.146;2023-04-01T05:20:48;7.10;;;3.97;;
5225;SDS011;2632;51.666;7.146;2023-04-01T05:23:17;8.07;;;4.90;;
5225;SDS011;2632;51.666;7.146;2023-04-01T05:25:44;6.97;;;4.13;;
5225;SDS011;2632;51.666;7.146;2023-04-01T05:28:11;7.93;;;4.10;;
5225;SDS011;2632;51.666;7.146;2023-04-01T05:30:41;6.83;;;4.30;;
5225;SDS011;2632;51.666;7.146;2023-04-01T05:33:08;8.83;;;4.50;;
5225;SDS011;2632;51.666;7.146;2023-04-01T05:35:36;6.83;;;3.70;;
5225;SDS011;2632;51.666;7.146;2023-04-01T05:38:03;8.63;;;3.93;;
5225;SDS011;2632;51.666;7.146;2023-04-01T05:40:30;7.13;;;4.47;;
5225;SDS011;2632;51.666;7.146;2023-04-01T05:42:58;4.80;;;3.50;;
5225;SDS011;2632;51.666;7.146;2023-04-01T05:45:25;7.77;;;4.40;;
5225;SDS011;2632;51.666;7.146;2023-04-01T05:47:52;6.20;;;3.20;;
5225;SDS011;2632;51.666;7.146;2023-04-01T05:50:19;7.00;;;3.83;;
5225;SDS011;2632;51.666;7.146;2023-04-01T05:52:46;5.37;;;3.07;;
5225;SDS011;2632;51.666;7.146;2023-04-01T05:55:12;5.93;;;3.33;;
5225;SDS011;2632;51.666;7.146;2023-04-01T05:57:39;7.77;;;3.30;;
5225;SDS011;2632;51.666;7.146;2023-04-01T06:00:06;5.50;;;3.10;;
5225;SDS011;2632;51.666;7.146;2023-04-01T06:02:33;5.57;;;3.47;;
5225;SDS011;2632;51.666;7.146;2023-04-01T06:05:11;5.90;;;3.30;;
5225;SDS011;2632;51.666;7.146;2023-04-01T06:07:46;7.97;;;3.67;;
5225;SDS011;2632;51.666;7.146;2023-04-01T06:10:19;4.47;;;3.17;;
5225;SDS011;2632;51.666;7.146;2023-04-01T06:12:59;3.93;;;3.40;;
5225;SDS011;2632;51.666;7.146;2023-04-01T06:15:35;8.23;;;3.30;;
5225;SDS011;2632;51.666;7.146;2023-04-01T06:18:21;5.20;;;2.97;;
5225;SDS011;2632;51.666;7.146;2023-04-01T06:26:39;4.53;;;3.37;;
5225;SDS011;2632;51.666;7.146;2023-04-01T06:35:31;5.93;;;3.73;;
5225;SDS011;2632;51.666;7.146;2023-04-01T06:55:18;9.07;;;4.40;;
5225;SDS011;2632;51.666;7.146;2023-04-01T06:57:56;5.83;;;4.17;;
5225;SDS011;2632;51.666;7.146;2023-04-01T07:05:56;12.10;;;4.73;;
5225;SDS011;2632;51.666;7.146;2023-04-01T07:08:28;7.70;;;4.37;;
5225;SDS011;2632;51.666;7.146;2023-04-01T07:11:01;4.53;;;3.67;;
5225;SDS011;2632;51.666;7.146;2023-04-01T07:13:29;6.40;;;3.70;;
5225;SDS011;2632;51.666;7.146;2023-04-01T07:16:05;6.23;;;3.60;;
5225;SDS011;2632;51.666;7.146;2023-04-01T07:18:48;5.60;;;3.80;;
5225;SDS011;2632;51.666;7.146;2023-04-01T07:21:25;6.60;;;4.33;;
5225;SDS011;2632;51.666;7.146;2023-04-01T07:24:09;6.70;;;4.47;;
5225;SDS011;2632;51.666;7.146;2023-04-01T07:26:41;7.43;;;5.20;;
5225;SDS011;2632;51.666;7.146;2023-04-01T07:29:12;11.10;;;5.43;;
5225;SDS011;2632;51.666;7.146;2023-04-01T07:31:57;7.00;;;5.10;;
5225;SDS011;2632;51.666;7.146;2023-04-01T07:34:56;10.77;;;6.00;;
5225;SDS011;2632;51.666;7.146;2023-04-01T07:37:32;8.33;;;5.40;;
5225;SDS011;2632;51.666;7.146;2023-04-01T07:46:30;7.37;;;5.00;;
5225;SDS011;2632;51.666;7.146;2023-04-01T07:48:33;8.80;;;6.00;;
5225;SDS011;2632;51.666;7.146;2023-04-01T07:51:15;9.70;;;5.97;;
5225;SDS011;2632;51.666;7.146;2023-04-01T07:53:49;8.73;;;5.67;;
5225;SDS011;2632;51.666;7.146;2023-04-01T07:56:42;9.53;;;4.90;;
5225;SDS011;2632;51.666;7.146;2023-04-01T07:59:26;8.33;;;5.30;;
5225;SDS011;2632;51.666;7.146;2023-04-01T08:13:26;8.33;;;4.93;;
5225;SDS011;2632;51.666;7.146;2023-04-01T08:16:17;9.67;;;5.03;;
5225;SDS011;2632;51.666;7.146;2023-04-01T08:22:14;7.60;;;4.87;;
5225;SDS011;2632;51.666;7.146;2023-04-01T08:24:46;5.70;;;3.90;;
5225;SDS011;2632;51.666;7.146;2023-04-01T08:27:18;5.93;;;3.83;;
5225;SDS011;2632;51.666;7.146;2023-04-01T08:38:20;3.80;;;2.53;;
5225;SDS011;2632;51.666;7.146;2023-04-01T08:41:00;2.40;;;1.97;;
5225;SDS011;2632;51.666;7.146;2023-04-01T08:43:51;2.40;;;1.93;;
5225;SDS011;2632;51.666;7.146;2023-04-01T08:50:24;5.77;;;2.10;;
5225;SDS011;2632;51.666;7.146;2023-04-01T08:56:14;2.10;;;1.80;;
5225;SDS011;2632;51.666;7.146;2023-04-01T09:13:12;2.07;;;1.73;;
5225;SDS011;2632;51.666;7.146;2023-04-01T09:16:06;4.67;;;2.33;;
5225;SDS011;2632;51.666;7.146;2023-04-01T09:21:31;4.47;;;2.20;;
5225;SDS011;2632;51.666;7.146;2023-04-01T09:38:08;3.60;;;2.70;;
5225;SDS011;2632;51.666;7.146;2023-04-01T09:41:19;4.00;;;2.43;;
5225;SDS011;2632;51.666;7.146;2023-04-01T09:49:24;4.03;;;2.60;;
5225;SDS011;2632;51.666;7.146;2023-04-01T09:54:54;5.23;;;2.80;;
5225;SDS011;2632;51.666;7.146;2023-04-01T10:06:54;4.70;;;2.33;;
5225;SDS011;2632;51.666;7.146;2023-04-01T10:15:22;4.90;;;2.73;;
5225;SDS011;2632;51.666;7.146;2023-04-01T10:18:19;3.00;;;2.10;;
5225;SDS011;2632;51.666;7.146;2023-04-01T10:21:05;3.40;;;1.90;;
5225;SDS011;2632;51.666;7.146;2023-04-01T10:23:53;3.60;;;2.50;;
5225;SDS011;2632;51.666;7.146;2023-04-01T10:49:38;3.20;;;2.40;;
5225;SDS011;2632;51.666;7.146;2023-04-01T11:27:02;3.43;;;1.77;;
5225;SDS011;2632;51.666;7.146;2023-04-01T11:32:02;2.60;;;1.73;;
5225;SDS011;2632;51.666;7.146;2023-04-01T11:34:56;4.60;;;1.63;;
5225;SDS011;2632;51.666;7.146;2023-04-01T11:40:54;4.63;;;2.13;;
5225;SDS011;2632;51.666;7.146;2023-04-01T11:55:35;2.60;;;2.27;;
5225;SDS011;2632;51.666;7.146;2023-04-01T11:58:06;4.03;;;1.60;;
5225;SDS011;2632;51.666;7.146;2023-04-01T12:03:16;1.57;;;1.30;;
5225;SDS011;2632;51.666;7.146;2023-04-01T12:08:36;1.83;;;1.40;;
5225;SDS011;2632;51.666;7.146;2023-04-01T12:11:27;1.70;;;1.53;;
5225;SDS011;2632;51.666;7.146;2023-04-01T12:14:24;1.73;;;1.40;;
5225;SDS011;2632;51.666;7.146;2023-04-01T12:19:59;2.90;;;2.10;;
5225;SDS011;2632;51.666;7.146;2023-04-01T12:22:50;2.03;;;1.83;;
5225;SDS011;2632;51.666;7.146;2023-04-01T12:28:21;3.90;;;2.50;;
5225;SDS011;2632;51.666;7.146;2023-04-01T12:31:01;3.00;;;2.50;;
5225;SDS011;2632;51.666;7.146;2023-04-01T12:33:44;2.97;;;2.40;;
5225;SDS011;2632;51.666;7.146;2023-04-01T12:54:07;3.43;;;2.87;;
5225;SDS011;2632;51.666;7.146;2023-04-01T13:05:20;4.83;;;2.80;;
5225;SDS011;2632;51.666;7.146;2023-04-01T13:07:52;4.20;;;2.50;;
5225;SDS011;2632;51.666;7.146;2023-04-01T13:13:33;4.90;;;3.43;;
5225;SDS011;2632;51.666;7.146;2023-04-01T13:19:00;5.00;;;3.20;;
5225;SDS011;2632;51.666;7.146;2023-04-01T13:21:35;3.60;;;2.63;;
5225;SDS011;2632;51.666;7.146;2023-04-01T13:27:06;4.03;;;2.70;;
5225;SDS011;2632;51.666;7.146;2023-04-01T13:29:39;4.00;;;2.60;;
5225;SDS011;2632;51.666;7.146;2023-04-01T13:32:17;4.33;;;2.70;;
5225;SDS011;2632;51.666;7.146;2023-04-01T13:35:00;4.30;;;2.77;;
5225;SDS011;2632;51.666;7.146;2023-04-01T13:37:56;4.13;;;2.83;;
5225;SDS011;2632;51.666;7.146;2023-04-01T13:43:11;4.20;;;2.60;;
5225;SDS011;2632;51.666;7.146;2023-04-01T13:48:42;6.73;;;3.23;;
5225;SDS011;2632;51.666;7.146;2023-04-01T13:51:38;3.87;;;2.90;;
5225;SDS011;2632;51.666;7.146;2023-04-01T14:02:18;6.53;;;3.53;;
5225;SDS011;2632;51.666;7.146;2023-04-01T14:10:59;4.57;;;3.53;;
5225;SDS011;2632;51.666;7.146;2023-04-01T14:16:14;6.03;;;3.90;;
5225;SDS011;2632;51.666;7.146;2023-04-01T14:27:55;7.03;;;3.73;;
5225;SDS011;2632;51.666;7.146;2023-04-01T14:33:26;7.33;;;5.10;;
5225;SDS011;2632;51.666;7.146;2023-04-01T14:38:59;7.57;;;4.53;;
5225;SDS011;2632;51.666;7.146;2023-04-01T14:42:10;8.30;;;4.40;;
5225;SDS011;2632;51.666;7.146;2023-04-01T14:47:51;6.17;;;4.10;;
5225;SDS011;2632;51.666;7.146;2023-04-01T14:50:30;8.37;;;5.20;;
5225;SDS011;2632;51.666;7.146;2023-04-01T14:53:13;8.63;;;5.40;;
5225;SDS011;2632;51.666;7.146;2023-04-01T14:55:53;10.87;;;5.40;;
5225;SDS011;2632;51.666;7.146;2023-04-01T14:58:22;6.97;;;4.70;;
5225;SDS011;2632;51.666;7.146;2023-04-01T15:01:17;7.90;;;5.20;;
5225;SDS011;2632;51.666;7.146;2023-04-01T15:07:27;10.97;;;6.27;;
5225;SDS011;2632;51.666;7.146;2023-04-01T15:13:34;9.20;;;5.63;;
5225;SDS011;2632;51.666;7.146;2023-04-01T15:29:45;11.20;;;6.10;;
5225;SDS011;2632;51.666;7.146;2023-04-01T15:35:33;8.17;;;5.33;;
5225;SDS011;2632;51.666;7.146;2023-04-01T15:38:17;11.77;;;5.37;;
5225;SDS011;2632;51.666;7.146;2023-04-01T15:41:00;7.20;;;5.23;;
5225;SDS011;2632;51.666;7.146;2023-04-01T15:43:48;10.33;;;5.20;;
5225;SDS011;2632;51.666;7.146;2023-04-01T15:57:14;7.00;;;4.40;;
5225;SDS011;2632;51.666;7.146;2023-04-01T15:59:54;7.57;;;4.07;;
5225;SDS011;2632;51.666;7.146;2023-04-01T16:11:41;7.60;;;4.80;;
5225;SDS011;2632;51.666;7.146;2023-04-01T16:17:16;8.60;;;4.87;;
5225;SDS011;2632;51.666;7.146;2023-04-01T16:20:02;6.47;;;4.20;;
5225;SDS011;2632;51.666;7.146;2023-04-01T16:31:06;5.93;;;4.20;;
5225;SDS011;2632;51.666;7.146;2023-04-01T16:33:49;6.23;;;4.37;;
5225;SDS011;2632;51.666;7.146;2023-04-01T16:36:28;6.63;;;4.07;;
5225;SDS011;2632;51.666;7.146;2023-04-01T16:39:22;6.40;;;4.20;;
5225;SDS011;2632;51.666;7.146;2023-04-01T16:42:09;6.90;;;4.37;;
5225;SDS011;2632;51.666;7.146;2023-04-01T16:45:15;6.40;;;4.00;;
5225;SDS011;2632;51.666;7.146;2023-04-01T16:47:48;7.13;;;4.20;;
5225;SDS011;2632;51.666;7.146;2023-04-01T16:50:22;6.20;;;4.27;;
5225;SDS011;2632;51.666;7.146;2023-04-01T16:53:10;6.47;;;4.10;;
5225;SDS011;2632;51.666;7.146;2023-04-01T16:55:49;7.30;;;4.30;;
5225;SDS011;2632;51.666;7.146;2023-04-01T16:58:24;8.20;;;4.17;;
5225;SDS011;2632;51.666;7.146;2023-04-01T17:03:40;9.60;;;3.30;;
5225;SDS011;2632;51.666;7.146;2023-04-01T17:06:24;6.17;;;3.90;;
5225;SDS011;2632;51.666;7.146;2023-04-01T17:09:19;5.07;;;3.40;;
5225;SDS011;2632;51.666;7.146;2023-04-01T17:12:00;5.47;;;3.40;;
5225;SDS011;2632;51.666;7.146;2023-04-01T17:14:41;5.83;;;3.60;;
5225;SDS011;2632;51.666;7.146;2023-04-01T17:17:25;7.03;;;4.30;;
5225;SDS011;2632;51.666;7.146;2023-04-01T17:23:10;9.23;;;5.77;;
5225;SDS011;2632;51.666;7.146;2023-04-01T17:28:36;7.57;;;4.60;;
5225;SDS011;2632;51.666;7.146;2023-04-01T17:31:33;8.60;;;4.57;;
5225;SDS011;2632;51.666;7.146;2023-04-01T17:37:19;6.30;;;3.87;;
5225;SDS011;2632;51.666;7.146;2023-04-01T17:40:14;5.67;;;3.90;;
5225;SDS011;2632;51.666;7.146;2023-04-01T17:53:36;6.93;;;3.30;;
5225;SDS011;2632;51.666;7.146;2023-04-01T17:56:14;5.63;;;3.70;;
5225;SDS011;2632;51.666;7.146;2023-04-01T17:58:59;5.13;;;3.50;;
5225;SDS011;2632;51.666;7.146;2023-04-01T18:07:34;5.00;;;3.70;;
5225;SDS011;2632;51.666;7.146;2023-04-01T18:10:24;4.90;;;3.70;;
5225;SDS011;2632;51.666;7.146;2023-04-01T18:21:18;3.30;;;2.73;;
5225;SDS011;2632;51.666;7.146;2023-04-01T18:26:50;2.93;;;2.13;;
5225;SDS011;2632;51.666;7.146;2023-04-01T18:32:26;3.43;;;2.53;;
5225;SDS011;2632;51.666;7.146;2023-04-01T18:38:19;1.93;;;1.83;;
5225;SDS011;2632;51.666;7.146;2023-04-01T18:41:10;2.50;;;1.80;;
5225;SDS011;2632;51.666;7.146;2023-04-01T18:46:57;2.37;;;2.17;;
5225;SDS011;2632;51.666;7.146;2023-04-01T18:49:30;1.80;;;1.60;;
5225;SDS011;2632;51.666;7.146;2023-04-01T18:52:03;4.00;;;1.90;;
5225;SDS011;2632;51.666;7.146;2023-04-01T18:54:45;1.57;;;1.47;;
5225;SDS011;2632;51.666;7.146;2023-04-01T19:00:38;1.60;;;1.50;;
5225;SDS011;2632;51.666;7.146;2023-04-01T19:06:18;2.30;;;1.90;;
5225;SDS011;2632;51.666;7.146;2023-04-01T19:09:23;2.40;;;1.47;;
5225;SDS011;2632;51.666;7.146;2023-04-01T19:11:55;2.33;;;2.07;;
5225;SDS011;2632;51.666;7.146;2023-04-01T19:19:51;1.80;;;1.70;;
5225;SDS011;2632;51.666;7.146;2023-04-01T19:25:37;3.00;;;2.00;;
5225;SDS011;2632;51.666;7.146;2023-04-01T19:28:13;2.40;;;2.10;;
5225;SDS011;2632;51.666;7.146;2023-04-01T19:30:49;1.80;;;1.60;;
5225;SDS011;2632;51.666;7.146;2023-04-01T19:42:15;2.50;;;2.00;;
5225;SDS011;2632;51.666;7.146;2023-04-01T19:50:27;4.17;;;2.20;;
5225;SDS011;2632;51.666;7.146;2023-04-01T19:53:06;2.33;;;1.90;;
5225;SDS011;2632;51.666;7.146;2023-04-01T20:01:05;3.17;;;1.93;;
5225;SDS011;2632;51.666;7.146;2023-04-01T20:14:56;1.77;;;1.67;;
5225;SDS011;2632;51.666;7.146;2023-04-01T20:17:30;1.90;;;1.77;;
5225;SDS011;2632;51.666;7.146;2023-04-01T20:25:23;1.90;;;1.70;;
5225;SDS011;2632;51.666;7.146;2023-04-01T20:28:00;2.20;;;2.00;;
5225;SDS011;2632;51.666;7.146;2023-04-01T20:30:45;2.97;;;1.60;;
5225;SDS011;2632;51.666;7.146;2023-04-01T20:42:24;1.40;;;1.30;;
5225;SDS011;2632;51.666;7.146;2023-04-01T20:45:14;1.70;;;1.60;;
5225;SDS011;2632;51.666;7.146;2023-04-01T20:50:33;1.97;;;1.77;;
5225;SDS011;2632;51.666;7.146;2023-04-01T20:53:20;2.20;;;2.00;;
5225;SDS011;2632;51.666;7.146;2023-04-01T21:01:44;3.40;;;2.07;;
5225;SDS011;2632;51.666;7.146;2023-04-01T21:05:03;4.00;;;1.97;;
5225;SDS011;2632;51.666;7.146;2023-04-01T21:08:30;3.10;;;2.20;;
5225;SDS011;2632;51.666;7.146;2023-04-01T21:13:54;3.70;;;2.23;;
5225;SDS011;2632;51.666;7.146;2023-04-01T21:19:52;2.77;;;2.00;;
5225;SDS011;2632;51.666;7.146;2023-04-01T21:25:27;2.37;;;2.10;;
5225;SDS011;2632;51.666;7.146;2023-04-01T21:28:20;2.60;;;1.80;;
5225;SDS011;2632;51.666;7.146;2023-04-01T21:31:05;2.73;;;2.40;;
5225;SDS011;2632;51.666;7.146;2023-04-01T21:52:38;3.07;;;2.30;;
5225;SDS011;2632;51.666;7.146;2023-04-01T22:01:16;2.30;;;2.03;;
5225;SDS011;2632;51.666;7.146;2023-04-01T22:04:07;2.47;;;2.20;;
5225;SDS011;2632;51.666;7.146;2023-04-01T22:06:50;2.13;;;2.00;;
5225;SDS011;2632;51.666;7.146;2023-04-01T22:09:32;3.10;;;2.10;;
5225;SDS011;2632;51.666;7.146;2023-04-01T22:12:17;2.80;;;2.10;;
5225;SDS011;2632;51.666;7.146;2023-04-01T22:17:39;3.60;;;2.60;;
5225;SDS011;2632;51.666;7.146;2023-04-01T22:20:22;2.60;;;2.40;;
5225;SDS011;2632;51.666;7.146;2023-04-01T22:24:13;2.20;;;2.00;;
5225;SDS011;2632;51.666;7.146;2023-04-01T22:26:30;2.50;;;2.27;;
5225;SDS011;2632;51.666;7.146;2023-04-01T22:29:06;2.50;;;2.30;;
5225;SDS011;2632;51.666;7.146;2023-04-01T22:31:40;2.60;;;2.40;;
5225;SDS011;2632;51.666;7.146;2023-04-01T22:37:29;3.30;;;2.60;;
5225;SDS011;2632;51.666;7.146;2023-04-01T22:42:42;3.27;;;2.57;;
5225;SDS011;2632;51.666;7.146;2023-04-01T22:48:36;2.70;;;2.50;;
5225;SDS011;2632;51.666;7.146;2023-04-01T22:54:12;3.80;;;2.57;;
5225;SDS011;2632;51.666;7.146;2023-04-01T22:56:56;3.00;;;2.50;;
5225;SDS011;2632;51.666;7.146;2023-04-01T23:02:28;2.80;;;2.30;;
5225;SDS011;2632;51.666;7.146;2023-04-01T23:05:02;4.10;;;2.90;;
5225;SDS011;2632;51.666;7.146;2023-04-01T23:10:15;2.80;;;2.30;;
5225;SDS011;2632;51.666;7.146;2023-04-01T23:12:57;2.70;;;2.23;;
5225;SDS011;2632;51.666;7.146;2023-04-01T23:15:27;2.93;;;2.20;;
5225;SDS011;2632;51.666;7.146;2023-04-01T23:21:03;2.80;;;2.33;;
5225;SDS011;2632;51.666;7.146;2023-04-01T23:29:17;2.67;;;2.03;;
5225;SDS011;2632;51.666;7.146;2023-04-01T23:31:47;3.03;;;2.33;;
5225;SDS011;2632;51.666;7.146;2023-04-01T23:34:32;2.30;;;1.80;;
5225;SDS011;2632;51.666;7.146;2023-04-01T23:37:05;2.50;;;2.10;;
5225;SDS011;2632;51.666;7.146;2023-04-01T23:39:41;2.33;;;2.10;;
5225;SDS011;2632;51.666;7.146;2023-04-01T23:42:14;2.20;;;2.00;;
5225;SDS011;2632;51.666;7.146;2023-04-01T23:44:53;2.40;;;2.07;;
5225;SDS011;2632;51.666;7.146;2023-04-01T23:47:29;2.33;;;2.00;;
5225;SDS011;2632;51.666;7.146;2023-04-01T23:50:01;2.40;;;1.87;;
5225;SDS011;2632;51.666;7.146;2023-04-01T23:52:41;3.60;;;2.43;;
5225;SDS011;2632;51.666;7.146;2023-04-01T23:55:13;2.50;;;2.17;;
5225;SDS011;2632;51.666;7.146;2023-04-01T23:57:40;2.40;;;2.00;;
